Latest Coastal Weather Observations for Maria Island

IDT60701

Issued at 9:21 pm EST Tuesday 7 July 2015 (issued every 10 minutes, with the page automatically refreshed every 10 minutes)

About coastal observations | Map of coastal stations | Coastal observations for TAS | Marine services | Other Formats
Station Details ID: 092124 Name: MARIA ISLAND (POINT LESUEUR) Lat: -42.66 Lon: 148.02 Height: 28.0 m
Data from the previous 72 hours. | See also: Recent months at Maria Island
Date/Time
EST
Temp

°C
Wind Pressure Rain
since 9am
mm
Weather Cloud Vis
km
Sea
Height
m
Swell
Dir
 
Speed
knots
Gust
knots
hPa Trend Height
m
Period
s
Dir
07/09:00pm 6.2 WNW 2 5 1027.9 - 0.4 - - - - - - -
07/08:30pm 6.5 SSW 6 7 1027.7 - 0.4 - - - - - - -
07/08:00pm 6.7 SE 3 4 1027.9 - 0.4 - - - - - - -
07/07:30pm 6.6 SW 4 5 1027.6 - 0.4 - - - - - - -
07/07:00pm 6.6 WSW 5 7 1027.4 - 0.4 - - - - - - -
07/06:30pm 6.4 WSW 2 3 1027.1 - 0.4 - - - - - - -
07/06:00pm 6.3 NNE 1 3 1026.9 - 0.4 Recent precip. - - - - - -
07/05:30pm 6.3 ESE 2 4 1026.8 - 0.4 - - - - - - -
07/05:00pm 7.1 SW 7 9 1026.5 - 0.2 - - - - - - -
07/04:30pm 7.2 SSW 7 8 1026.3 - 0.2 - - - - - - -
07/04:00pm 7.3 SSW 8 9 1026.1 - 0.2 - - - - - - -
07/03:30pm 7.0 SSE 8 11 1025.9 - 0.2 - - - - - - -
07/03:00pm 7.3 SE 6 9 1025.5 - 0.2 - - - - - - -
07/02:30pm 8.6 SSW 10 12 1025.2 - 0.2 - - - - - - -
07/02:00pm 8.3 SW 10 12 1025.2 - 0.2 - - - - - - -
07/01:30pm 8.1 SW 12 15 1025.2 - 0.2 - - - - - - -
07/01:00pm 8.1 SSW 14 16 1025.2 - 0.2 - - - - - - -
07/12:30pm 7.8 SSW 12 14 1025.4 - 0.2 - - - - - - -
07/12:00pm 7.0 SSW 10 15 1025.6 - 0.2 Recent precip. - - - - - -
07/11:30am 7.1 SW 13 15 1025.4 - 0.0 - - - - - - -
07/11:00am 6.9 SSW 14 18 1025.7 - 0.0 - - - - - - -
07/10:30am 7.3 SSW 14 18 1025.5 - 0.0 - - - - - - -
07/10:00am 7.0 SSW 17 22 1025.1 - 0.0 - - - - - - -
07/09:30am 7.0 SSW 15 19 1024.8 - 0.0 - - - - - - -
07/09:00am 7.0 SSW 15 18 1024.7 - 4.0 - - - - - - -
07/08:30am 7.4 SSE 13 18 1024.4 - 4.0 - - - - - - -
07/08:00am 7.4 S 13 15 1024.0 - 4.0 - - - - - - -
07/07:30am 7.4 S 14 18 1023.8 - 4.0 - - - - - - -
07/07:11am 6.8 S 16 27 1023.5 - 4.0 - - - - - - -
07/07:00am 7.0 SSW 18 23 1023.3 - 4.0 - - - - - - -
07/06:30am 6.8 SSW 14 19 1022.8 - 4.0 - - - - - - -
07/06:00am 6.5 SSW 14 17 1022.4 - 4.0 Rain - - - - - -
07/05:30am 6.4 SSW 15 19 1022.2 - 3.8 - - - - - - -
07/05:00am 6.2 SSE 12 17 1022.1 - 3.4 - - - - - - -
07/04:30am 6.3 SSW 17 22 1021.8 - 3.0 - - - - - - -
07/04:00am 6.3 SSW 12 16 1021.5 - 2.0 - - - - - - -
07/03:30am 6.3 S 16 20 1021.3 - 2.0 - - - - - - -
07/03:18am 6.6 SSW 16 26 1021.4 - 1.8 - - - - - - -
07/03:00am 6.3 SSW 15 19 1021.6 - 1.6 Recent precip. - - - - - -
07/02:30am 6.3 SW 16 19 1021.5 - 1.6 - - - - - - -
07/02:00am 6.5 SW 15 19 1021.1 - 1.2 - - - - - - -
07/01:30am 6.7 SW 18 24 1020.9 - 1.0 - - - - - - -
07/01:00am 6.9 SW 16 20 1020.8 - 1.0 - - - - - - -
07/12:30am 6.7 SSW 15 19 1020.6 - 1.0 - - - - - - -
07/12:00am 7.0 SSW 16 20 1020.6 - 1.0 - - - - - - -
 
Date/Time
EST
Temp

°C
Wind Pressure Rain
since 9am
mm
Weather Cloud Vis
km
Sea
Height
m
Swell
Dir
 
Speed
knots
Gust
knots
hPa Trend Height
m
Period
s
Dir
06/11:30pm 7.0 SSW 16 19 1020.6 - 1.0 - - - - - - -
06/11:00pm 6.9 SSW 16 19 1020.6 - 1.0 - - - - - - -
06/10:30pm 6.7 SSW 17 19 1020.4 - 1.0 - - - - - - -
06/10:00pm 6.9 SSW 16 19 1020.1 - 1.0 - - - - - - -
06/09:30pm 6.7 SSW 17 20 1020.1 - 1.0 - - - - - - -
06/09:00pm 6.5 SW 17 20 1019.9 - 1.0 Recent precip. - - - - - -
06/08:30pm 6.6 SSW 13 16 1019.8 - 1.0 - - - - - - -
06/08:00pm 6.3 SSW 14 22 1019.7 - 0.8 - - - - - - -
06/07:30pm 6.6 S 12 15 1019.4 - 0.8 - - - - - - -
06/07:00pm 6.1 SSE 14 19 1019.2 - 0.8 - - - - - - -
06/06:30pm 6.9 S 12 15 1018.9 - 0.8 - - - - - - -
06/06:00pm 7.1 S 16 21 1018.5 - 0.8 - - - - - - -
06/05:30pm 7.0 S 17 23 1018.2 - 0.8 - - - - - - -
06/05:25pm 7.5 S 15 23 1018.0 - 0.8 - - - - - - -
06/05:00pm 7.4 S 10 12 1017.9 - 0.8 - - - - - - -
06/04:30pm 7.5 S 14 23 1017.5 - 0.8 - - - - - - -
06/04:00pm 7.6 SSE 12 15 1017.4 - 0.8 - - - - - - -
06/03:30pm 8.0 SSW 12 16 1017.1 - 0.8 - - - - - - -
06/03:00pm 8.1 SSE 13 16 1016.8 - 0.8 - - - - - - -
06/02:30pm 7.9 S 13 17 1016.6 - 0.8 - - - - - - -
06/02:00pm 8.1 S 13 16 1016.4 - 0.8 - - - - - - -
06/01:30pm 8.1 S 14 19 1016.5 - 0.8 - - - - - - -
06/01:00pm 7.6 S 11 17 1016.6 - 0.6 - - - - - - -
06/12:30pm 7.9 SSE 13 17 1016.7 - 0.6 - - - - - - -
06/12:00pm 8.1 S 8 11 1016.7 - 0.6 Recent precip. - - - - - -
06/11:30am 8.1 SSW 11 14 1016.9 - 0.2 - - - - - - -
06/11:00am 6.4 S 11 15 1017.2 - 0.2 - - - - - - -
06/10:30am 6.8 SSW 15 20 1017.1 - 0.2 - - - - - - -
06/10:00am 7.4 SSW 12 15 1016.8 - 0.0 - - - - - - -
06/09:30am 6.4 SSE 12 15 1016.6 - 0.0 - - - - - - -
06/09:00am 7.6 S 11 15 1016.3 - 0.0 - - - - - - -
06/08:30am 7.4 S 14 19 1016.1 - 0.0 - - - - - - -
06/08:00am 7.2 S 11 14 1016.0 - 0.0 - - - - - - -
06/07:30am 7.2 S 12 14 1015.8 - 0.0 - - - - - - -
06/07:00am 7.7 S 15 19 1015.4 - 0.0 - - - - - - -
06/06:30am 7.9 S 14 17 1015.3 - 0.0 - - - - - - -
06/06:00am 7.8 SSW 14 17 1015.0 - 0.0 - - - - - - -
06/05:30am 7.9 SSW 15 19 1014.8 - 0.0 - - - - - - -
06/05:00am 7.9 SSW 15 18 1014.7 - 0.0 - - - - - - -
06/04:30am 8.1 S 12 16 1014.5 - 0.0 - - - - - - -
06/04:00am 7.9 SSW 12 15 1014.3 - 0.0 - - - - - - -
06/03:30am 7.9 SSW 13 16 1014.5 - 0.0 - - - - - - -
06/03:00am 8.0 S 11 13 1014.5 - 0.0 - - - - - - -
06/02:30am 7.8 SSW 11 14 1014.4 - 0.0 - - - - - - -
06/02:00am 7.9 SSW 10 12 1014.4 - 0.0 - - - - - - -
06/01:30am 8.0 SSW 10 13 1014.4 - 0.0 - - - - - - -
06/01:00am 7.8 SSW 12 13 1014.4 - 0.0 - - - - - - -
06/12:30am 7.7 SW 12 13 1014.6 - 0.0 - - - - - - -
06/12:00am 8.0 SSW 9 11 1014.8 - 0.0 - - - - - - -
 
Date/Time
EST
Temp

°C
Wind Pressure Rain
since 9am
mm
Weather Cloud Vis
km
Sea
Height
m
Swell
Dir
 
Speed
knots
Gust
knots
hPa Trend Height
m
Period
s
Dir
05/11:30pm 8.0 SSE 6 8 1015.0 - 0.0 - - - - - - -
05/11:00pm 8.2 SSW 7 9 1014.9 - 0.0 - - - - - - -
05/10:30pm 8.1 SW 7 9 1014.9 - 0.0 - - - - - - -
05/10:00pm 8.1 SW 7 8 1015.0 - 0.0 - - - - - - -
05/09:30pm 8.2 SW 8 9 1015.0 - 0.0 - - - - - - -
05/09:00pm 8.5 SSW 8 11 1014.9 - 0.0 - - - - - - -
05/08:30pm 8.4 SSW 9 11 1014.7 - 0.0 - - - - - - -
05/08:00pm 8.4 SSW 7 8 1014.6 - 0.0 - - - - - - -
05/07:30pm 8.5 SW 8 10 1014.7 - 0.0 - - - - - - -
05/07:00pm 8.8 SSW 9 11 1014.6 - 0.0 - - - - - - -
05/06:30pm 8.8 SSW 11 13 1014.2 - 0.0 - - - - - - -
05/06:00pm 8.8 SSW 10 13 1014.0 - 0.0 - - - - - - -
05/05:30pm 9.0 SSW 9 10 1013.8 - 0.0 - - - - - - -
05/05:00pm 9.2 SSW 10 12 1013.5 - 0.0 - - - - - - -
05/04:30pm 9.4 SSW 13 14 1013.3 - 0.0 - - - - - - -
05/04:00pm 9.5 S 11 13 1013.1 - 0.0 - - - - - - -
05/03:30pm 9.7 SSW 10 12 1013.1 - 0.0 - - - - - - -
05/03:00pm 9.7 S 11 13 1013.0 - 0.0 - - - - - - -
05/02:30pm 10.0 SSW 12 16 1013.1 - 0.0 - - - - - - -
05/02:00pm 10.1 SSW 11 14 1013.2 - 0.0 - - - - - - -
05/01:30pm 10.2 SSW 11 13 1013.2 - 0.0 - - - - - - -
05/01:00pm 10.4 SSW 8 11 1013.2 - 0.0 - - - - - - -
05/12:30pm 10.3 SSW 6 8 1013.3 - 0.0 - - - - - - -
05/12:00pm 10.4 SSW 6 7 1013.6 - 0.0 - - - - - - -
05/11:30am 10.1 SSW 5 6 1013.8 - 0.0 - - - - - - -
05/11:00am 10.0 W 5 7 1014.1 - 0.0 - - - - - - -
05/10:30am 9.9 W 5 8 1014.1 - 0.0 - - - - - - -
05/10:00am 9.7 W 8 10 1014.1 - 0.0 - - - - - - -
05/09:30am 9.6 W 7 8 1014.0 - 0.0 - - - - - - -
05/09:00am 9.1 WNW 8 10 1013.9 - 0.0 - - - - - - -
05/08:30am 9.0 WNW 6 7 1013.9 - 0.0 - - - - - - -
05/08:00am 9.2 WNW 5 10 1013.8 - 0.0 - - - - - - -
05/07:30am 8.5 WNW 6 9 1013.5 - 0.0 - - - - - - -
05/07:00am 8.9 NNW 4 6 1013.3 - 0.0 - - - - - - -
05/06:30am 8.8 NNW 6 8 1013.1 - 0.0 - - - - - - -
05/06:00am 8.9 NNW 8 9 1013.0 - 0.0 - - - - - - -
05/05:30am 8.9 N 6 8 1013.0 - 0.0 - - - - - - -
05/05:00am 8.6 N 5 8 1013.0 - 0.0 - - - - - - -
05/04:30am 8.9 NW 4 8 1012.9 - 0.0 - - - - - - -
05/04:00am 9.1 W 6 8 1013.1 - 0.0 - - - - - - -
05/03:30am 9.4 N 1 4 1013.2 - 0.0 - - - - - - -
05/03:00am 9.6 NW 2 4 1013.6 - 0.0 - - - - - - -
05/02:30am 9.2 W 5 8 1013.7 - 0.0 - - - - - - -
05/02:00am 9.1 WSW 5 8 1013.7 - 0.0 - - - - - - -
05/01:30am 9.4 WSW 10 15 1013.3 - 0.0 - - - - - - -
05/01:00am 9.4 WSW 8 10 1013.4 - 0.0 - - - - - - -
05/12:30am 9.4 WSW 7 9 1013.4 - 0.0 - - - - - - -
05/12:00am 9.4 WSW 6 8 1013.4 - 0.0 - - - - - - -
 
Date/Time
EST
Temp

°C
Wind Pressure Rain
since 9am
mm
Weather Cloud Vis
km
Sea
Height
m
Swell
Dir
 
Speed
knots
Gust
knots
hPa Trend Height
m
Period
s
Dir
04/11:30pm 9.7 WSW 10 15 1013.3 - 0.0 - - - - - - -
04/11:00pm 9.7 W 10 14 1013.4 - 0.0 - - - - - - -
04/10:30pm 9.8 W 11 14 1013.5 - 0.0 - - - - - - -
04/10:00pm 9.6 W 11 16 1013.3 - 0.0 - - - - - - -
04/09:30pm 9.7 W 11 13 1013.4 - 0.0 - - - - - - -

Other Formats:

Comma delimited format used in spreadsheet applications
http://www.bom.gov.au/fwo/IDT60701/IDT60701.95988.axf

JavaScript Object Notation format (JSON) in row-major order
http://www.bom.gov.au/fwo/IDT60701/IDT60701.95988.json